createdAt,value
2019-01-08T00:01:17.259Z,97.50
2019-01-08T00:03:45.679Z,97.70
2019-01-08T00:06:14.053Z,98.60
2019-01-08T00:08:42.539Z,98.60
2019-01-08T00:11:10.821Z,98.90
2019-01-08T00:13:39.312Z,99.30
2019-01-08T00:16:07.778Z,99.50
2019-01-08T00:18:36.222Z,99.70
2019-01-08T00:21:04.539Z,99.60
2019-01-08T00:23:33.986Z,99.50
2019-01-08T00:26:04.032Z,99.60
2019-01-08T00:28:32.415Z,99.80
2019-01-08T00:31:02.729Z,99.90
2019-01-08T00:33:30.911Z,99.90
2019-01-08T00:35:59.304Z,99.90
2019-01-08T00:38:27.755Z,99.70
2019-01-08T00:40:56.172Z,99.50
2019-01-08T00:43:24.548Z,99.10
2019-01-08T00:45:52.926Z,98.90
2019-01-08T00:48:21.307Z,98.70
2019-01-08T00:50:49.748Z,98.70
2019-01-08T00:53:18.134Z,98.60
2019-01-08T00:55:46.512Z,98.50
2019-01-08T00:58:14.885Z,98.30
2019-01-08T01:00:43.300Z,98.30
2019-01-08T01:03:11.672Z,97.90
2019-01-08T01:05:40.054Z,97.90
2019-01-08T01:08:08.444Z,98.10
2019-01-08T01:10:36.811Z,98.30
2019-01-08T01:13:05.360Z,98.20
2019-01-08T01:15:33.766Z,97.90
2019-01-08T01:18:03.439Z,98.00
2019-01-08T01:20:33.060Z,97.70
2019-01-08T01:23:01.464Z,97.70
2019-01-08T01:25:29.830Z,97.80
2019-01-08T01:27:58.235Z,97.70
2019-01-08T01:30:26.675Z,97.50
2019-01-08T01:32:55.345Z,97.20
2019-01-08T01:35:23.730Z,97.10
2019-01-08T01:37:53.455Z,97.00
2019-01-08T01:40:21.819Z,96.90
2019-01-08T01:42:50.203Z,96.80
2019-01-08T01:45:18.872Z,96.50
2019-01-08T01:47:47.254Z,96.60
2019-01-08T01:50:15.620Z,96.40
2019-01-08T01:52:44.014Z,96.50
2019-01-08T01:55:12.388Z,96.60
2019-01-08T01:57:40.792Z,96.70
2019-01-08T02:00:09.229Z,96.60
2019-01-08T02:02:37.610Z,96.60
2019-01-08T02:05:06.302Z,96.80
2019-01-08T02:07:38.415Z,96.90
2019-01-08T02:10:08.516Z,97.50
2019-01-08T02:12:36.904Z,97.20
2019-01-08T02:15:05.828Z,97.20
2019-01-08T02:17:34.220Z,97.50
2019-01-08T02:20:04.224Z,97.30
2019-01-08T02:22:32.607Z,97.30
2019-01-08T02:25:00.988Z,97.30
2019-01-08T02:27:29.764Z,97.50
2019-01-08T02:29:58.452Z,97.40
2019-01-08T02:32:27.176Z,97.30
2019-01-08T02:34:55.952Z,97.30
2019-01-08T02:37:24.323Z,97.30
2019-01-08T02:39:52.748Z,97.20
2019-01-08T02:42:21.142Z,97.30
2019-01-08T02:44:49.646Z,97.30
2019-01-08T02:47:18.296Z,96.90
2019-01-08T02:49:46.692Z,96.70
2019-01-08T02:52:15.061Z,96.60
2019-01-08T02:54:43.481Z,96.70
2019-01-08T02:57:12.003Z,96.50
2019-01-08T02:59:40.489Z,96.40
2019-01-08T03:02:08.857Z,96.80
2019-01-08T03:04:37.242Z,96.40
2019-01-08T03:07:05.616Z,96.60
2019-01-08T03:09:35.919Z,96.50
2019-01-08T03:12:05.621Z,96.60
2019-01-08T03:14:34.052Z,96.70
2019-01-08T03:17:02.363Z,96.70
2019-01-08T03:19:30.748Z,96.70
2019-01-08T03:21:59.116Z,96.60
2019-01-08T03:24:27.500Z,96.70
2019-01-08T03:26:55.873Z,96.80
2019-01-08T03:29:24.264Z,96.90
2019-01-08T03:31:52.644Z,97.00
2019-01-08T03:34:21.034Z,97.10
2019-01-08T03:36:49.500Z,98.10
2019-01-08T03:39:17.887Z,97.50
2019-01-08T03:41:47.499Z,97.70
2019-01-08T03:44:15.880Z,97.30
2019-01-08T03:46:45.242Z,97.20
2019-01-08T03:49:13.686Z,97.30
2019-01-08T03:51:42.084Z,97.60
2019-01-08T03:54:10.500Z,98.20
2019-01-08T03:56:38.863Z,97.80
2019-01-08T03:59:07.238Z,97.90
2019-01-08T04:01:35.634Z,97.90
2019-01-08T04:04:05.247Z,98.00
2019-01-08T04:06:34.033Z,98.20
2019-01-08T04:09:02.387Z,98.30
2019-01-08T04:11:32.417Z,98.50
2019-01-08T04:14:00.808Z,98.80
2019-01-08T04:16:29.616Z,98.40
2019-01-08T04:18:57.933Z,98.50
2019-01-08T04:21:27.295Z,98.40
2019-01-08T04:23:55.752Z,98.40
2019-01-08T04:26:24.159Z,98.40
2019-01-08T04:28:52.884Z,98.70
2019-01-08T04:31:21.273Z,98.70
2019-01-08T04:33:50.643Z,98.90
2019-01-08T04:36:19.037Z,99.10
2019-01-08T04:38:47.394Z,99.30
2019-01-08T04:41:15.895Z,99.60
2019-01-08T04:43:44.554Z,99.70
2019-01-08T04:46:13.217Z,99.80
2019-01-08T04:48:41.632Z,99.90
2019-01-08T04:51:10.019Z,99.90
2019-01-08T04:53:38.737Z,99.90
2019-01-08T04:56:07.119Z,99.90
2019-01-08T04:58:35.487Z,99.90
2019-01-08T05:01:03.808Z,99.90
2019-01-08T05:03:32.172Z,99.90
2019-01-08T05:06:00.559Z,99.90
2019-01-08T05:08:28.923Z,99.90
2019-01-08T05:10:57.687Z,99.90
2019-01-08T05:13:26.057Z,99.90
2019-01-08T05:15:54.472Z,99.90
2019-01-08T05:18:22.842Z,99.90
2019-01-08T05:20:51.680Z,99.90
2019-01-08T05:23:20.072Z,99.90
2019-01-08T05:25:49.415Z,99.90
2019-01-08T05:28:17.973Z,99.90
2019-01-08T05:30:46.621Z,99.90
2019-01-08T05:33:15.012Z,99.90
2019-01-08T05:35:43.384Z,99.90
2019-01-08T05:38:14.794Z,99.90
2019-01-08T05:40:43.252Z,99.90
2019-01-08T05:43:11.644Z,99.90
2019-01-08T05:45:40.119Z,99.90
2019-01-08T05:48:09.014Z,99.90
2019-01-08T05:50:37.378Z,99.90
2019-01-08T05:53:05.778Z,99.90
2019-01-08T05:55:34.153Z,99.90
2019-01-08T05:58:02.655Z,99.90
2019-01-08T06:00:32.322Z,99.90
2019-01-08T06:03:00.699Z,99.90
2019-01-08T06:05:29.059Z,99.90
2019-01-08T06:07:57.443Z,99.90
2019-01-08T06:10:25.829Z,99.90
2019-01-08T06:12:54.227Z,99.90
2019-01-08T06:15:22.583Z,99.90
2019-01-08T06:17:50.981Z,99.90
2019-01-08T06:20:19.347Z,99.90
2019-01-08T06:22:48.775Z,99.90
2019-01-08T06:25:17.149Z,99.90
2019-01-08T06:27:45.909Z,99.90
2019-01-08T06:30:14.272Z,99.90
2019-01-08T06:32:42.768Z,99.90
2019-01-08T06:35:11.427Z,99.90
2019-01-08T06:37:39.807Z,99.90
2019-01-08T06:40:08.171Z,99.90
2019-01-08T06:42:38.182Z,99.90
2019-01-08T06:45:06.906Z,99.90
2019-01-08T06:47:36.479Z,99.90
2019-01-08T06:50:07.381Z,99.90
2019-01-08T06:52:35.746Z,99.90
2019-01-08T06:55:05.471Z,99.90
2019-01-08T06:57:34.324Z,99.90
2019-01-08T07:00:03.180Z,99.90
2019-01-08T07:02:31.543Z,99.90
2019-01-08T07:04:59.939Z,99.90
2019-01-08T07:07:28.305Z,99.90
2019-01-08T07:09:56.694Z,99.90
2019-01-08T07:12:25.065Z,99.90
2019-01-08T07:14:53.461Z,99.90
2019-01-08T07:17:21.833Z,99.90
2019-01-08T07:19:50.258Z,99.90
2019-01-08T07:22:19.232Z,99.90
2019-01-08T07:24:47.628Z,99.90
2019-01-08T07:27:16.600Z,99.90
2019-01-08T07:29:45.196Z,99.90
2019-01-08T07:32:13.564Z,99.90
2019-01-08T07:34:41.960Z,99.90
2019-01-08T07:37:10.601Z,99.90
2019-01-08T07:39:39.040Z,99.90
2019-01-08T07:42:07.400Z,99.90
2019-01-08T07:44:35.801Z,99.90
2019-01-08T07:47:04.163Z,99.90
2019-01-08T07:49:32.547Z,99.90
2019-01-08T07:52:00.916Z,99.90
2019-01-08T07:54:29.303Z,99.90
2019-01-08T07:56:57.671Z,99.90
2019-01-08T07:59:26.065Z,99.90
2019-01-08T08:01:54.632Z,99.90
2019-01-08T08:04:23.128Z,99.90
2019-01-08T08:06:51.487Z,99.90
2019-01-08T08:09:19.855Z,99.90
2019-01-08T08:11:48.249Z,99.90
2019-01-08T08:14:16.618Z,99.90
2019-01-08T08:16:45.008Z,99.90
2019-01-08T08:19:14.108Z,99.90
2019-01-08T08:21:42.468Z,99.90
2019-01-08T08:24:10.879Z,99.90
2019-01-08T08:26:39.239Z,99.90
2019-01-08T08:29:07.615Z,99.90
2019-01-08T08:31:36.005Z,99.90
2019-01-08T08:34:04.373Z,99.90
2019-01-08T08:36:32.759Z,99.90
2019-01-08T08:39:01.205Z,99.90
2019-01-08T08:41:29.588Z,99.90
2019-01-08T08:43:58.029Z,99.90
2019-01-08T08:46:26.415Z,99.90
2019-01-08T08:48:54.860Z,99.90
2019-01-08T08:51:23.254Z,99.90
2019-01-08T08:53:52.637Z,99.90
2019-01-08T08:56:21.683Z,99.90
2019-01-08T08:58:50.348Z,99.90
2019-01-08T09:01:18.889Z,99.90
2019-01-08T09:03:47.260Z,99.90
2019-01-08T09:06:15.644Z,99.90
2019-01-08T09:08:45.527Z,99.90
2019-01-08T09:11:14.025Z,99.90
2019-01-08T09:13:42.393Z,99.90
2019-01-08T09:16:10.884Z,99.90
2019-01-08T09:18:39.357Z,99.90
2019-01-08T09:21:08.251Z,99.90
2019-01-08T09:23:37.639Z,99.90
2019-01-08T09:26:06.146Z,99.90
2019-01-08T09:28:36.563Z,99.90
2019-01-08T09:31:04.952Z,99.90
2019-01-08T09:33:34.628Z,99.90
2019-01-08T09:36:03.309Z,99.90
2019-01-08T09:38:31.667Z,99.90
2019-01-08T09:41:00.040Z,99.90
2019-01-08T09:43:28.955Z,99.90
2019-01-08T09:45:57.488Z,99.90
2019-01-08T09:48:26.231Z,99.90
2019-01-08T09:50:56.224Z,99.90
2019-01-08T09:53:24.687Z,99.90
2019-01-08T09:55:53.103Z,99.90
2019-01-08T09:58:21.498Z,99.90
2019-01-08T10:00:49.864Z,99.90
2019-01-08T10:03:18.244Z,99.90
2019-01-08T10:05:46.622Z,99.90
2019-01-08T10:08:15.008Z,99.90
2019-01-08T10:10:43.484Z,99.90
2019-01-08T10:13:11.974Z,99.90
2019-01-08T10:15:40.436Z,99.90
2019-01-08T10:18:08.822Z,99.90
2019-01-08T10:20:37.196Z,99.90
2019-01-08T10:23:10.252Z,99.90
2019-01-08T10:25:36.268Z,99.90
2019-01-08T10:28:04.902Z,99.90
2019-01-08T10:30:33.269Z,99.90
2019-01-08T10:33:01.648Z,99.90
2019-01-08T10:35:30.016Z,99.80
2019-01-08T10:37:59.311Z,99.40
2019-01-08T10:40:27.689Z,99.40
2019-01-08T10:42:57.248Z,99.10
2019-01-08T10:45:25.625Z,99.20
2019-01-08T10:47:54.135Z,99.60
2019-01-08T10:50:22.499Z,99.40
2019-01-08T10:52:51.046Z,99.20
2019-01-08T10:55:19.412Z,98.90
2019-01-08T10:57:47.813Z,98.90
2019-01-08T11:00:16.252Z,98.90
2019-01-08T11:02:44.648Z,98.00
2019-01-08T11:05:13.003Z,96.70
2019-01-08T11:07:42.247Z,96.10
2019-01-08T11:10:10.625Z,95.30
2019-01-08T11:12:39.395Z,95.10
2019-01-08T11:15:08.450Z,94.80
2019-01-08T11:17:36.818Z,94.20
2019-01-08T11:20:08.613Z,93.00
2019-01-08T11:22:36.975Z,92.60
2019-01-08T11:25:06.041Z,92.80
2019-01-08T11:27:34.832Z,93.20
2019-01-08T11:30:03.216Z,93.70
2019-01-08T11:32:31.585Z,94.20
2019-01-08T11:34:59.976Z,94.70
2019-01-08T11:37:28.348Z,95.30
2019-01-08T11:39:56.786Z,95.20
2019-01-08T11:42:25.152Z,95.30
2019-01-08T11:44:53.916Z,95.00
2019-01-08T11:47:22.282Z,95.50
2019-01-08T11:49:50.703Z,95.40
2019-01-08T11:52:19.082Z,95.10
2019-01-08T11:54:47.464Z,94.90
2019-01-08T11:57:15.834Z,94.60
2019-01-08T11:59:44.219Z,94.30
2019-01-08T12:02:13.177Z,94.40
2019-01-08T12:04:41.561Z,94.40
2019-01-08T12:07:10.241Z,94.50
2019-01-08T12:09:38.628Z,94.50
2019-01-08T12:12:07.376Z,94.70
2019-01-08T12:14:35.772Z,94.60
2019-01-08T12:17:04.436Z,94.60
2019-01-08T12:19:32.816Z,94.50
2019-01-08T12:22:01.200Z,94.70
2019-01-08T12:24:29.591Z,94.90
2019-01-08T12:26:57.955Z,94.90
2019-01-08T12:29:26.360Z,95.00
2019-01-08T12:31:56.348Z,95.20
2019-01-08T12:34:24.774Z,94.70
2019-01-08T12:36:53.512Z,94.70
2019-01-08T12:39:22.223Z,94.80
2019-01-08T12:41:51.739Z,94.70
2019-01-08T12:44:20.110Z,94.70
2019-01-08T12:46:48.763Z,94.30
2019-01-08T12:49:17.181Z,94.10
2019-01-08T12:51:45.566Z,93.80
2019-01-08T12:54:14.032Z,93.90
2019-01-08T12:56:42.430Z,93.40
2019-01-08T12:59:11.012Z,93.10
2019-01-08T13:01:40.005Z,92.90
2019-01-08T13:04:08.351Z,93.00
2019-01-08T13:06:36.895Z,92.00
2019-01-08T13:09:07.440Z,91.20
2019-01-08T13:11:35.881Z,90.90
2019-01-08T13:14:04.248Z,90.30
2019-01-08T13:16:32.656Z,90.00
2019-01-08T13:19:01.589Z,90.40
2019-01-08T13:21:29.977Z,89.80
2019-01-08T13:23:58.348Z,90.20
2019-01-08T13:26:26.732Z,90.20
2019-01-08T13:28:55.101Z,90.30
2019-01-08T13:31:23.487Z,90.40
2019-01-08T13:33:52.788Z,90.80
2019-01-08T13:36:21.173Z,91.00
2019-01-08T13:38:49.539Z,91.10
2019-01-08T13:41:17.935Z,91.40
2019-01-08T13:43:47.427Z,91.50
2019-01-08T13:46:15.834Z,91.10
2019-01-08T13:48:44.195Z,91.50
2019-01-08T13:51:12.672Z,91.70
2019-01-08T13:53:41.048Z,91.70
2019-01-08T13:56:09.506Z,91.70
2019-01-08T13:58:37.904Z,92.00
2019-01-08T14:01:06.283Z,92.10
2019-01-08T14:03:34.660Z,92.30
2019-01-08T14:06:03.077Z,92.40
2019-01-08T14:08:31.529Z,92.60
2019-01-08T14:10:59.933Z,92.80
2019-01-08T14:13:28.308Z,93.10
2019-01-08T14:15:56.680Z,93.30
2019-01-08T14:18:25.259Z,93.50
2019-01-08T14:20:53.650Z,93.80
2019-01-08T14:23:22.283Z,94.20
2019-01-08T14:25:50.653Z,94.80
2019-01-08T14:28:19.185Z,95.30
2019-01-08T14:30:49.331Z,95.70
2019-01-08T14:33:17.637Z,96.10
2019-01-08T14:35:46.009Z,96.20
2019-01-08T14:38:14.411Z,96.60
2019-01-08T14:40:42.775Z,96.40
2019-01-08T14:43:14.246Z,96.80
2019-01-08T14:45:41.172Z,96.90
2019-01-08T14:48:09.565Z,97.70
2019-01-08T14:50:38.463Z,98.00
2019-01-08T14:53:07.163Z,98.30
2019-01-08T14:55:35.510Z,98.80
2019-01-08T14:58:04.257Z,99.10
2019-01-08T15:00:33.081Z,99.10
2019-01-08T15:03:01.467Z,99.00
2019-01-08T15:05:29.832Z,99.00
2019-01-08T15:07:59.191Z,99.20
2019-01-08T15:10:27.577Z,99.90
2019-01-08T15:12:55.977Z,99.30
2019-01-08T15:15:24.389Z,99.30
2019-01-08T15:17:52.781Z,99.30
2019-01-08T15:20:21.244Z,99.30
2019-01-08T15:22:49.705Z,99.50
2019-01-08T15:25:18.077Z,99.60
2019-01-08T15:27:46.473Z,99.60
2019-01-08T15:30:14.838Z,99.50
2019-01-08T15:32:43.222Z,99.60
2019-01-08T15:35:11.596Z,99.80
2019-01-08T15:37:39.979Z,99.80
2019-01-08T15:40:08.350Z,99.90
2019-01-08T15:42:36.747Z,99.90
2019-01-08T15:45:05.120Z,99.90
2019-01-08T15:47:33.761Z,99.90
2019-01-08T15:50:02.160Z,99.90
2019-01-08T15:52:30.591Z,99.90
2019-01-08T15:54:59.004Z,99.90
2019-01-08T15:57:28.820Z,99.90
2019-01-08T15:59:57.222Z,99.90
2019-01-08T16:02:25.596Z,99.90
2019-01-08T16:04:53.979Z,99.90
2019-01-08T16:07:22.352Z,99.90
2019-01-08T16:09:50.753Z,99.90
2019-01-08T16:12:19.110Z,99.90
2019-01-08T16:14:47.521Z,99.90
2019-01-08T16:17:17.052Z,99.90
2019-01-08T16:19:45.493Z,99.90
2019-01-08T16:22:15.873Z,99.90
2019-01-08T16:24:44.277Z,99.90
2019-01-08T16:27:12.729Z,99.90
2019-01-08T16:29:41.236Z,99.90
2019-01-08T16:32:09.645Z,99.90
2019-01-08T16:34:38.039Z,99.90
2019-01-08T16:37:07.505Z,99.90
2019-01-08T16:39:36.018Z,99.90
2019-01-08T16:42:04.388Z,99.90
2019-01-08T16:44:32.775Z,99.90
2019-01-08T16:47:01.131Z,99.90
2019-01-08T16:49:29.875Z,99.90
2019-01-08T16:51:58.745Z,99.90
2019-01-08T16:54:27.130Z,99.90
2019-01-08T16:56:55.501Z,99.90
2019-01-08T16:59:23.896Z,99.90
2019-01-08T17:01:52.255Z,99.90
2019-01-08T17:04:20.717Z,99.90
2019-01-08T17:06:49.093Z,99.90
2019-01-08T17:09:17.837Z,99.90
2019-01-08T17:11:46.216Z,99.90
2019-01-08T17:14:14.681Z,99.90
2019-01-08T17:16:43.090Z,99.90
2019-01-08T17:19:11.478Z,99.90
2019-01-08T17:21:39.859Z,99.90
2019-01-08T17:24:08.316Z,99.90
2019-01-08T17:26:36.699Z,99.90
2019-01-08T17:29:05.203Z,99.90
2019-01-08T17:31:33.601Z,99.90
2019-01-08T17:34:01.964Z,99.90
2019-01-08T17:36:30.357Z,99.90
2019-01-08T17:38:58.738Z,99.90
2019-01-08T17:41:27.204Z,99.90
2019-01-08T17:43:55.639Z,99.90
2019-01-08T17:46:24.026Z,99.90
2019-01-08T17:48:52.403Z,99.90
2019-01-08T17:51:20.800Z,99.90
2019-01-08T17:53:49.371Z,99.90
2019-01-08T17:56:17.897Z,99.90
2019-01-08T17:58:46.760Z,99.90
2019-01-08T18:01:18.592Z,99.90
2019-01-08T18:03:48.225Z,99.90
2019-01-08T18:06:16.604Z,99.90
2019-01-08T18:08:45.063Z,99.90
2019-01-08T18:11:13.456Z,99.90
2019-01-08T18:13:43.394Z,99.90
2019-01-08T18:16:11.765Z,99.90
2019-01-08T18:18:40.149Z,99.90
2019-01-08T18:21:08.615Z,99.90
2019-01-08T18:23:36.993Z,99.90
2019-01-08T18:26:05.375Z,99.90
2019-01-08T18:28:33.739Z,99.90
2019-01-08T18:31:02.441Z,99.90
2019-01-08T18:33:30.798Z,99.90
2019-01-08T18:35:59.215Z,99.90
2019-01-08T18:38:27.638Z,99.90
2019-01-08T18:40:57.932Z,99.90
2019-01-08T18:43:26.371Z,99.90
2019-01-08T18:45:55.378Z,99.90
2019-01-08T18:48:23.834Z,99.90
2019-01-08T18:50:53.867Z,99.90
2019-01-08T18:53:22.839Z,99.90
2019-01-08T18:55:51.187Z,99.90
2019-01-08T18:58:19.747Z,99.90
2019-01-08T19:00:48.224Z,99.90
2019-01-08T19:03:18.592Z,99.90
2019-01-08T19:05:47.186Z,99.90
2019-01-08T19:08:15.587Z,99.90
2019-01-08T19:10:44.032Z,99.90
2019-01-08T19:13:12.416Z,99.90
2019-01-08T19:15:40.774Z,99.90
2019-01-08T19:18:11.119Z,99.90
2019-01-08T19:20:39.336Z,99.90
2019-01-08T19:23:07.791Z,99.90
2019-01-08T19:25:36.279Z,99.90
2019-01-08T19:28:04.677Z,99.90
2019-01-08T19:30:33.047Z,99.90
2019-01-08T19:33:01.449Z,99.90
2019-01-08T19:35:32.063Z,99.90
2019-01-08T19:38:00.451Z,99.90
2019-01-08T19:40:30.322Z,99.90
2019-01-08T19:42:58.742Z,99.90
2019-01-08T19:45:27.120Z,99.90
2019-01-08T19:47:55.574Z,99.90
2019-01-08T19:50:24.406Z,99.90
2019-01-08T19:52:52.737Z,99.90
2019-01-08T19:55:21.103Z,99.90
2019-01-08T19:57:49.484Z,99.90
2019-01-08T20:00:17.846Z,99.90
2019-01-08T20:02:46.247Z,99.90
2019-01-08T20:05:14.871Z,99.90
2019-01-08T20:07:43.661Z,99.90
2019-01-08T20:10:12.037Z,99.90
2019-01-08T20:12:40.467Z,99.90
2019-01-08T20:15:09.107Z,99.90
2019-01-08T20:17:38.735Z,99.90
2019-01-08T20:20:07.972Z,99.90
2019-01-08T20:22:36.351Z,99.90
2019-01-08T20:25:05.079Z,99.90
2019-01-08T20:27:33.962Z,99.90
2019-01-08T20:30:03.307Z,99.90
2019-01-08T20:32:31.678Z,99.90
2019-01-08T20:35:00.096Z,99.90
2019-01-08T20:37:28.624Z,99.90
2019-01-08T20:39:57.015Z,99.90
2019-01-08T20:42:25.379Z,99.90
2019-01-08T20:44:54.170Z,99.90
2019-01-08T20:47:22.539Z,99.90
2019-01-08T20:49:50.923Z,99.90
2019-01-08T20:52:19.294Z,99.90
2019-01-08T20:54:47.712Z,99.90
2019-01-08T20:57:16.094Z,99.90
2019-01-08T20:59:44.477Z,99.90
2019-01-08T21:02:12.921Z,99.90
2019-01-08T21:04:41.410Z,99.20
2019-01-08T21:07:09.789Z,99.10
2019-01-08T21:09:38.183Z,99.10
2019-01-08T21:12:06.303Z,98.70
2019-01-08T21:14:34.695Z,98.30
2019-01-08T21:17:03.067Z,97.80
2019-01-08T21:19:31.781Z,96.80
2019-01-08T21:22:01.684Z,96.60
2019-01-08T21:24:30.094Z,96.90
2019-01-08T21:27:00.822Z,96.70
2019-01-08T21:29:29.213Z,96.50
2019-01-08T21:31:57.765Z,97.50
2019-01-08T21:34:26.421Z,97.90
2019-01-08T21:36:54.783Z,98.00
2019-01-08T21:39:23.171Z,98.50
2019-01-08T21:41:51.596Z,98.70
2019-01-08T21:44:19.986Z,98.70
2019-01-08T21:46:48.535Z,98.50
2019-01-08T21:49:16.898Z,98.60
2019-01-08T21:51:45.301Z,98.40
2019-01-08T21:54:13.663Z,98.70
2019-01-08T21:56:42.049Z,99.10
2019-01-08T21:59:10.415Z,99.40
2019-01-08T22:01:38.804Z,99.40
2019-01-08T22:04:08.989Z,99.60
2019-01-08T22:06:37.375Z,99.70
2019-01-08T22:09:06.218Z,99.50
2019-01-08T22:11:36.599Z,99.90
2019-01-08T22:14:05.226Z,99.90
2019-01-08T22:16:35.211Z,99.60
2019-01-08T22:19:03.582Z,99.60
2019-01-08T22:21:31.968Z,99.00
2019-01-08T22:24:00.341Z,98.90
2019-01-08T22:26:28.746Z,98.70
2019-01-08T22:28:57.114Z,98.30
2019-01-08T22:31:26.732Z,98.10
2019-01-08T22:33:55.248Z,98.00
2019-01-08T22:36:23.678Z,97.90
2019-01-08T22:38:52.466Z,97.60
2019-01-08T22:41:20.847Z,97.70
2019-01-08T22:43:49.216Z,97.00
2019-01-08T22:46:17.634Z,97.10
2019-01-08T22:48:50.551Z,96.90
2019-01-08T22:51:19.030Z,97.00
2019-01-08T22:53:47.408Z,96.80
2019-01-08T22:56:15.783Z,97.00
2019-01-08T22:58:44.809Z,96.80
2019-01-08T23:01:14.851Z,96.90
2019-01-08T23:03:43.215Z,96.80
2019-01-08T23:06:11.612Z,96.70
2019-01-08T23:08:40.050Z,96.60
2019-01-08T23:11:08.639Z,96.50
2019-01-08T23:13:37.321Z,96.40
2019-01-08T23:16:05.695Z,96.40
2019-01-08T23:18:34.097Z,96.60
2019-01-08T23:21:02.722Z,96.80
2019-01-08T23:23:31.117Z,96.70
2019-01-08T23:26:00.015Z,96.90
2019-01-08T23:28:28.403Z,97.20
2019-01-08T23:30:56.768Z,97.50
2019-01-08T23:33:25.211Z,97.40
2019-01-08T23:35:53.575Z,97.40
2019-01-08T23:38:21.969Z,97.50
2019-01-08T23:40:50.343Z,97.90
2019-01-08T23:43:18.790Z,97.90
2019-01-08T23:45:48.588Z,98.00
2019-01-08T23:48:17.339Z,97.80
2019-01-08T23:50:45.755Z,97.90
2019-01-08T23:53:17.391Z,97.70
2019-01-08T23:55:48.153Z,97.90
2019-01-08T23:58:16.777Z,97.70
